Latest Weather Observations for Archerfield

IDQ60801

Issued at 6:32 pm EST Thursday 7 May 2015 (issued every 30 minutes, with the page automatically refreshed every 10 minutes)

About weather observations | Map of weather stations | Latest weather observations for QLD | Other Formats
Station Details ID: 040211 Name: ARCHERFIELD AIRPORT Lat: -27.57 Lon: 153.01 Height: 12.5 m
Data from the previous 72 hours. | See also: Recent months at Archerfield
Date/Time
EST
Temp
°C
App
Temp
°C
Dew
Point
Rel
Hum
%
Delta-T
°C
Wind Press
QNH
hPa
Press
MSL
hPa
Rain
since 9 am
mm
Dir
 
Spd
km/h
Gust
km/h
Spd
kts
Gust
kts
07/06:00pm 20.7 19.4 15.7 73 3.0 E 17 22 9 12 1016.2 1016.1 0.0
07/05:30pm 21.3 19.3 15.6 70 3.4 E 20 26 11 14 1015.7 1015.6 0.0
07/05:00pm 22.5 22.8 16.1 67 3.9 NE 9 15 5 8 1015.3 1015.2 0.0
07/04:30pm 23.9 21.9 12.8 49 6.4 WNW 15 19 8 10 1014.8 1014.7 0.0
07/04:00pm 25.2 23.6 12.8 46 7.2 W 13 15 7 8 1014.6 1014.5 0.0
07/03:30pm 25.7 24.9 12.9 45 7.4 W 9 15 5 8 1014.4 1014.3 0.0
07/03:00pm 25.7 24.6 11.8 42 7.9 WNW 9 17 5 9 1014.4 1014.3 0.0
07/02:30pm 25.6 24.2 12.1 43 7.7 W 11 17 6 9 1014.4 1014.3 0.0
07/02:00pm 25.5 25.1 13.0 46 7.3 WSW 7 13 4 7 1014.4 1014.3 0.0
07/01:30pm 25.1 24.4 12.0 44 7.5 WNW 7 15 4 8 1014.7 1014.6 0.0
07/01:00pm 24.8 23.6 12.7 47 7.0 WSW 11 19 6 10 1015.2 1015.1 0.0
07/12:30pm 23.6 21.3 10.6 44 7.2 W 13 19 7 10 1015.5 1015.4 0.0
07/12:00pm 23.5 21.0 11.2 46 6.9 W 15 22 8 12 1016.0 1015.9 0.0
07/11:30am 22.2 19.0 10.0 46 6.6 WSW 17 22 9 12 1016.4 1016.3 0.0
07/11:00am 21.8 18.4 9.3 45 6.7 W 17 22 9 12 1016.9 1016.8 0.0
07/10:30am 20.9 17.4 8.9 46 6.3 WSW 17 22 9 12 1017.1 1017.0 0.0
07/10:00am 19.8 16.0 7.5 45 6.3 WSW 17 22 9 12 1017.5 1017.4 0.0
07/09:30am 18.9 15.1 7.4 47 5.8 WSW 17 22 9 12 1017.6 1017.5 0.0
07/09:00am 18.0 13.7 6.8 48 5.6 WSW 19 26 10 14 1017.7 1017.6 -
07/08:30am 17.1 12.7 7.2 52 4.9 W 20 26 11 14 1017.5 1017.4 -
07/08:00am 16.0 11.9 6.2 52 4.7 WSW 17 26 9 14 1017.3 1017.2 -
07/07:30am 15.1 10.6 6.1 55 4.3 WSW 19 26 10 14 1016.9 1016.8 -
07/07:00am 14.4 10.2 5.5 55 4.2 WSW 17 22 9 12 1016.6 1016.5 -
07/06:30am 13.6 10.2 5.7 59 3.7 WSW 13 20 7 11 1016.3 1016.2 -
07/06:00am 13.3 10.6 5.7 60 3.6 WSW 9 13 5 7 1016.0 1015.9 -
07/05:30am 13.4 10.0 5.8 60 3.6 SW 13 15 7 8 1015.6 1015.5 -
07/05:00am 14.3 10.9 5.9 57 4.0 WSW 13 19 7 10 1015.3 1015.2 -
07/04:30am 14.6 11.2 5.9 56 4.2 WSW 13 19 7 10 1015.1 1015.0 -
07/04:00am 14.7 10.9 6.0 56 4.2 WSW 15 20 8 11 1014.9 1014.8 -
07/03:30am 15.1 11.8 6.4 56 4.2 WSW 13 20 7 11 1014.7 1014.6 -
07/03:00am 15.5 12.2 6.5 55 4.4 WSW 13 17 7 9 1014.7 1014.6 0.0
07/02:30am 15.5 11.6 7.0 57 4.2 W 17 22 9 12 1014.7 1014.6 -
07/02:00am 15.5 12.4 7.3 58 4.1 WSW 13 15 7 8 1014.9 1014.8 -
07/01:30am 16.2 12.8 7.7 57 4.3 WSW 15 22 8 12 1015.0 1014.9 -
07/01:00am 16.0 13.1 8.0 59 4.0 W 13 17 7 9 1015.1 1015.0 -
07/12:30am 17.1 14.7 8.5 57 4.4 WSW 11 17 6 9 1015.3 1015.2 -
07/12:00am 17.3 14.0 9.7 61 4.0 W 17 22 9 12 1015.2 1015.2 -
 
Date/Time
EST
Temp
°C
App
Temp
°C
Dew
Point
Rel
Hum
%
Delta-T
°C
Wind Press
QNH
hPa
Press
MSL
hPa
Rain
since 9 am
mm
Dir
 
Spd
km/h
Gust
km/h
Spd
kts
Gust
kts
06/11:30pm 17.7 14.6 10.3 62 3.9 W 17 20 9 11 1015.4 1015.3 -
06/11:00pm 18.6 17.4 10.4 59 4.4 SW 7 11 4 6 1015.6 1015.5 -
06/10:30pm 18.5 17.2 11.1 62 4.0 W 9 13 5 7 1015.4 1015.3 -
06/10:00pm 17.9 17.1 12.8 72 2.8 WSW 9 11 5 6 1015.4 1015.3 -
06/09:30pm 17.7 18.0 15.1 85 1.5 W 7 9 4 5 1015.3 1015.2 -
06/09:00pm 18.1 18.1 15.2 83 1.7 W 9 11 5 6 1015.3 1015.2 0.0
06/08:30pm 18.1 18.4 15.9 87 1.3 W 9 11 5 6 1015.2 1015.1 -
06/08:00pm 17.9 18.3 14.8 82 1.8 SSW 6 9 3 5 1015.1 1015.0 -
06/07:30pm 20.2 20.4 15.8 76 2.6 SSE 9 11 5 6 1014.8 1014.7 -
06/07:00pm 21.5 23.3 15.6 69 3.5 CALM 0 0 0 0 1014.3 1014.2 -
06/06:30pm 21.6 22.5 15.0 66 3.9 NE 4 7 2 4 1013.8 1013.7 -
06/06:00pm 22.8 23.1 15.1 62 4.6 ENE 7 17 4 9 1013.3 1013.2 -
06/05:30pm 22.9 22.8 13.9 57 5.3 NNE 7 9 4 5 1012.9 1012.8 -
06/05:00pm 25.2 24.9 13.4 48 6.9 N 7 9 4 5 1012.5 1012.4 -
06/04:30pm 28.5 29.3 12.4 37 9.4 CALM 0 0 0 0 1012.4 1012.3 -
06/04:00pm 28.7 29.0 12.2 36 9.6 NNW 2 6 1 3 1012.3 1012.2 -
06/03:30pm 29.3 29.3 13.5 38 9.4 WNW 6 11 3 6 1012.3 1012.2 -
06/03:00pm 28.8 27.0 12.2 35 9.7 SW 13 17 7 9 1012.2 1012.1 -
06/02:30pm 29.1 27.1 11.6 33 10.1 WSW 13 20 7 11 1012.3 1012.2 -
06/10:00am 23.2 22.0 15.0 60 4.9 WSW 15 20 8 11 1014.8 1014.7 0.0
06/09:30am 22.0 21.0 15.6 67 3.8 SW 15 19 8 10 1014.8 1014.7 0.0
06/09:00am 20.8 20.7 16.0 74 2.9 SW 11 15 6 8 1014.8 1014.7 0.0
06/08:30am 19.5 19.5 16.2 81 2.0 SW 11 15 6 8 1014.7 1014.6 0.0
06/08:00am 18.3 18.7 15.4 83 1.7 SW 7 11 4 6 1014.6 1014.5 0.0
06/07:30am 17.5 18.1 15.3 87 1.3 SSW 6 7 3 4 1014.2 1014.1 0.0
06/07:00am 15.6 16.9 14.1 91 0.8 CALM 0 0 0 0 1014.0 1013.9 0.0
06/06:30am 15.1 15.2 14.0 93 0.6 SSE 6 6 3 3 1013.7 1013.6 0.0
06/06:01am 15.1 16.2 14.5 96 0.3 SSW 2 7 1 4 1013.5 1013.4 0.0
06/06:00am 15.3 16.8 14.7 96 0.3 CALM 0 6 0 3 1013.5 1013.4 0.0
06/05:48am 15.2 16.7 14.6 96 0.3 CALM 0 0 0 0 1013.3 1013.2 0.0
06/05:30am 15.7 16.0 15.1 96 0.3 ESE 7 9 4 5 1013.0 1012.9 0.0
06/05:00am 14.9 14.9 14.1 95 0.5 S 7 9 4 5 1012.5 1012.4 0.0
06/04:30am 16.0 16.5 15.5 97 0.3 WSW 7 9 4 5 1012.3 1012.2 0.0
06/04:17am 15.6 17.3 15.1 97 0.3 CALM 0 7 0 4 1012.1 1012.0 0.0
06/04:00am 15.3 16.9 14.8 97 0.3 CALM 0 0 0 0 1012.1 1012.0 0.0
06/03:40am 14.4 15.5 13.4 94 0.6 CALM 0 6 0 3 1012.1 1012.0 0.0
06/03:30am 14.8 14.9 13.8 94 0.6 S 6 7 3 4 1011.9 1011.8 0.0
06/03:00am 15.8 16.2 14.8 94 0.6 SSW 6 9 3 5 1012.0 1011.9 0.0
06/02:30am 15.8 16.0 14.8 94 0.6 S 7 9 4 5 1012.1 1012.0 0.0
06/02:00am 16.6 16.5 16.0 96 0.4 S 11 13 6 7 1012.2 1012.1 0.0
06/01:30am 16.5 17.2 15.5 94 0.6 S 6 7 3 4 1012.2 1012.1 0.0
06/01:00am 17.0 19.0 15.9 93 0.6 CALM 0 7 0 4 1012.3 1012.2 0.0
06/12:52am 17.4 19.6 16.4 94 0.6 CALM 0 0 0 0 1012.4 1012.3 0.0
06/12:31am 16.4 17.7 14.2 87 1.3 CALM 0 0 0 0 1012.5 1012.4 0.0
06/12:30am 16.4 17.7 14.2 87 1.3 CALM 0 0 0 0 1012.5 1012.4 0.0
06/12:00am 17.8 18.7 16.1 90 1.0 W 6 7 3 4 1012.7 1012.6 0.0
 
Date/Time
EST
Temp
°C
App
Temp
°C
Dew
Point
Rel
Hum
%
Delta-T
°C
Wind Press
QNH
hPa
Press
MSL
hPa
Rain
since 9 am
mm
Dir
 
Spd
km/h
Gust
km/h
Spd
kts
Gust
kts
05/11:30pm 19.1 20.4 17.6 91 0.9 N 7 7 4 4 1012.7 1012.6 0.0
05/11:00pm 19.0 19.7 17.0 88 1.2 N 9 13 5 7 1012.7 1012.6 0.0
05/10:30pm 19.5 19.6 17.5 88 1.2 N 13 17 7 9 1012.7 1012.6 0.0
05/10:00pm 19.7 20.0 17.1 85 1.6 N 11 15 6 8 1012.5 1012.4 0.0
05/09:30pm 20.1 19.9 17.7 86 1.5 NNE 15 19 8 10 1012.5 1012.4 0.0
05/09:00pm 19.8 19.9 17.4 86 1.5 N 13 17 7 9 1012.5 1012.4 0.0
05/08:30pm 20.1 20.4 17.1 83 1.8 NNE 11 15 6 8 1012.4 1012.3 0.0
05/08:00pm 20.2 20.4 16.8 81 2.1 NNE 11 13 6 7 1012.2 1012.1 0.0
05/07:30pm 20.0 19.9 16.0 78 2.4 NNE 11 13 6 7 1011.9 1011.8 0.0
05/07:00pm 20.3 19.9 16.3 78 2.4 NNE 13 15 7 8 1011.4 1011.3 0.0
05/06:30pm 20.7 20.3 16.3 76 2.6 NNE 13 17 7 9 1011.0 1010.9 0.0
05/06:00pm 21.4 20.3 16.4 73 3.0 NNE 17 19 9 10 1010.7 1010.6 0.0
05/05:30pm 22.3 21.4 16.8 71 3.4 NNE 17 19 9 10 1010.2 1010.1 0.0
05/05:00pm 23.3 22.1 17.1 68 3.8 N 19 22 10 12 1009.9 1009.8 0.0
05/04:30pm 24.9 23.8 17.4 63 4.7 NNE 19 24 10 13 1009.7 1009.6 0.0
05/04:00pm 26.1 25.2 17.7 60 5.3 N 19 22 10 12 1009.6 1009.5 0.0
05/03:30pm 27.5 27.8 17.1 53 6.5 NNE 11 17 6 9 1009.6 1009.5 0.0
05/03:00pm 28.0 28.9 17.5 52 6.6 WNW 9 17 5 9 1009.8 1009.7 0.0
05/02:30pm 27.7 28.0 16.9 51 6.7 NW 11 17 6 9 1010.0 1009.9 0.0
05/02:00pm 27.6 28.9 17.2 53 6.5 WNW 6 13 3 7 1010.3 1010.2 0.0
05/01:30pm 27.9 28.4 17.4 52 6.6 WNW 11 19 6 10 1010.6 1010.5 0.0
05/01:00pm 27.0 28.0 16.3 52 6.6 WNW 6 13 3 7 1010.9 1010.8 0.0
05/12:30pm 26.0 26.2 15.7 53 6.3 NNW 9 17 5 9 1011.4 1011.3 0.0
05/12:00pm 26.3 27.0 17.1 57 5.7 NNW 9 17 5 9 1012.0 1011.9 0.0
05/11:30am 25.9 27.2 17.0 58 5.5 NW 6 11 3 6 1012.6 1012.5 0.0
05/11:00am 25.0 25.9 17.5 63 4.7 WSW 9 15 5 8 1013.4 1013.3 0.0
05/10:30am 24.8 26.0 17.3 63 4.7 W 7 15 4 8 1013.7 1013.6 0.0
05/10:00am 23.5 24.1 16.8 66 4.1 W 9 13 5 7 1013.8 1013.7 0.0
05/09:30am 22.6 23.4 17.3 72 3.3 WSW 9 13 5 7 1014.2 1014.1 0.0
05/09:00am 21.5 21.4 16.9 75 2.8 WSW 13 17 7 9 1014.3 1014.2 0.0
05/08:30am 20.5 21.1 16.7 79 2.3 WSW 9 15 5 8 1014.4 1014.3 0.0
05/08:00am 19.6 20.3 17.0 85 1.6 WSW 9 13 5 7 1014.2 1014.1 0.0
05/07:30am 17.7 18.9 16.0 90 1.0 SSW 4 7 2 4 1013.9 1013.8 0.0
05/07:00am 16.1 16.4 15.1 94 0.6 SSW 7 7 4 4 1013.5 1013.4 0.0
05/06:30am 14.9 16.3 14.3 96 0.3 CALM 0 0 0 0 1013.4 1013.3 0.0
05/06:00am 14.8 15.6 13.8 94 0.6 SSE 2 7 1 4 1013.3 1013.2 0.0
05/05:30am 15.1 15.1 14.3 95 0.5 S 7 9 4 5 1013.2 1013.1 0.0
05/05:00am 15.1 16.5 14.3 95 0.5 CALM 0 0 0 0 1013.1 1013.0 0.0
05/04:30am 14.9 16.1 13.9 94 0.6 CALM 0 0 0 0 1013.0 1012.9 0.0
05/04:00am 15.6 17.2 15.0 96 0.3 CALM 0 0 0 0 1012.9 1012.8 0.0
05/03:30am 15.9 16.8 15.1 95 0.5 SE 4 7 2 4 1012.9 1012.8 0.0
05/03:00am 15.9 16.4 14.9 94 0.6 S 6 7 3 4 1012.9 1012.8 0.0
05/02:30am 15.7 17.2 14.7 94 0.6 CALM 0 0 0 0 1013.0 1012.9 0.0
05/02:00am 15.8 16.9 14.5 92 0.7 S 2 7 1 4 1013.2 1013.1 0.0
05/01:30am 16.2 16.7 15.1 93 0.6 SSE 6 7 3 4 1013.5 1013.4 0.0
05/01:00am 16.2 16.7 15.1 93 0.6 S 6 7 3 4 1013.9 1013.8 0.0
05/12:30am 16.7 17.3 15.4 92 0.8 SSE 6 7 3 4 1014.1 1014.0 0.0
05/12:00am 16.9 18.8 15.8 93 0.6 CALM 0 6 0 3 1014.1 1014.0 0.0
 
Date/Time
EST
Temp
°C
App
Temp
°C
Dew
Point
Rel
Hum
%
Delta-T
°C
Wind Press
QNH
hPa
Press
MSL
hPa
Rain
since 9 am
mm
Dir
 
Spd
km/h
Gust
km/h
Spd
kts
Gust
kts
04/11:30pm 16.9 17.6 15.6 92 0.8 S 6 7 3 4 1014.3 1014.2 0.0
04/11:00pm 16.4 16.6 14.8 90 0.9 S 7 7 4 4 1014.4 1014.3 0.0
04/10:30pm 17.1 18.2 15.6 91 0.9 S 4 7 2 4 1014.5 1014.4 0.0
04/10:00pm 17.5 19.4 15.7 89 1.1 CALM 0 0 0 0 1014.5 1014.4 0.0
04/09:30pm 18.0 19.9 15.8 87 1.3 CALM 0 0 0 0 1014.4 1014.3 0.0
04/09:00pm 18.5 20.5 15.9 85 1.5 CALM 0 0 0 0 1014.1 1014.0 0.0
04/08:30pm 19.4 21.5 16.2 82 1.9 CALM 0 0 0 0 1014.0 1013.9 0.0
04/08:00pm 19.2 20.8 15.9 81 2.0 N 2 6 1 3 1013.9 1013.8 0.0
04/07:30pm 19.8 20.6 15.9 78 2.3 NNE 6 6 3 3 1013.7 1013.6 0.0
04/07:00pm 19.9 20.6 15.7 77 2.5 NNE 6 7 3 4 1013.5 1013.4 0.0

Other Formats:

Comma delimited format used in spreadsheet applications
http://www.bom.gov.au/fwo/IDQ60801/IDQ60801.94575.axf

JavaScript Object Notation format (JSON) in row-major order
http://www.bom.gov.au/fwo/IDQ60801/IDQ60801.94575.json